Time;durP1;ratioP1;P1;durP2;ratioP2;P2;SDS_P1;SDS_P2;PMS_P1;PMS_P2;Temp;Humidity;BMP_temperature;BMP_pressure;BME280_temperature;BME280_humidity;BME280_pressure;Samples;Min_cycle;Max_cycle;Signal;HPM_P1;HPM_P2
2022/09/12 00:00:04;;;;;;;3.63;1.80;;;;;;;19.71;67.69;96995.03;10548778;28;20053;-52
2022/09/12 00:05:50;;;;;;;1.70;1.60;;;;;;;19.71;67.67;96991.53;10559487;28;20040;-52
2022/09/12 00:11:11;;;;;;;1.63;1.52;;;;;;;19.71;67.76;96988.81;10575525;28;20062;-55
2022/09/12 00:16:32;;;;;;;1.98;1.77;;;;;;;19.71;67.60;96999.63;10564442;28;20105;-53
2022/09/12 00:21:51;;;;;;;1.60;1.50;;;;;;;19.72;67.75;96990.47;10564364;28;20512;-52
2022/09/12 00:27:11;;;;;;;1.75;1.50;;;;;;;19.71;67.66;97002.34;10583535;28;20105;-54
2022/09/12 00:32:30;;;;;;;1.77;1.50;;;;;;;19.71;67.64;96995.03;10572475;28;20052;-53
2022/09/12 00:37:49;;;;;;;1.70;1.60;;;;;;;19.70;67.64;96988.03;10570384;28;20059;-53
2022/09/12 00:43:13;;;;;;;1.90;1.70;;;;;;;19.69;67.66;96986.44;10577474;28;20060;-54
2022/09/12 00:48:39;;;;;;;2.10;1.75;;;;;;;19.71;67.66;96983.41;10577361;28;20047;-54
2022/09/12 00:53:59;;;;;;;1.70;1.60;;;;;;;19.70;67.70;96995.34;10565938;28;20056;-53
2022/09/12 00:59:25;;;;;;;2.03;1.83;;;;;;;19.72;67.62;96985.06;10579283;28;20062;-53
2022/09/12 01:04:46;;;;;;;2.47;1.52;;;;;;;19.71;67.58;96980.72;10531536;28;20055;-53
2022/09/12 01:10:08;;;;;;;2.10;1.90;;;;;;;19.70;67.75;96977.22;10580771;28;20494;-53
2022/09/12 01:15:28;;;;;;;5.97;1.80;;;;;;;19.70;67.63;96969.13;10571818;28;20088;-53
2022/09/12 01:21:02;;;;;;;1.73;1.60;;;;;;;19.72;67.57;96971.53;10571272;28;20052;-53
2022/09/12 01:26:40;;;;;;;1.45;1.35;;;;;;;19.69;67.60;96964.81;10594932;28;20039;-54
2022/09/12 01:32:05;;;;;;;1.65;1.55;;;;;;;19.69;67.58;96964.81;10554287;28;20055;-54
2022/09/12 01:37:32;;;;;;;1.65;1.42;;;;;;;19.69;67.53;96964.81;10578851;28;20052;-53
2022/09/12 01:42:51;;;;;;;1.58;1.42;;;;;;;19.69;67.51;96958.63;10591452;28;20036;-54
2022/09/12 01:48:23;;;;;;;1.63;1.52;;;;;;;19.70;67.53;96954.81;10568800;28;20096;-54
2022/09/12 01:53:47;;;;;;;1.70;1.60;;;;;;;19.69;67.58;96947.81;10553710;28;20047;-53
2022/09/12 01:59:11;;;;;;;1.80;1.48;;;;;;;19.69;67.49;96956.69;10562320;28;20499;-54
2022/09/12 02:04:38;;;;;;;1.63;1.45;;;;;;;19.70;67.53;96949.41;10537565;28;20036;-53
2022/09/12 02:10:21;;;;;;;1.70;1.40;;;;;;;19.68;67.42;96946.22;10569784;28;20036;-53
2022/09/12 02:15:49;;;;;;;1.92;1.50;;;;;;;19.68;67.53;96947.03;10535312;28;20052;-52
2022/09/12 02:21:09;;;;;;;1.80;1.27;;;;;;;19.68;67.32;96944.31;10562159;28;20078;-52
2022/09/12 02:26:34;;;;;;;1.55;1.38;;;;;;;19.67;67.34;96944.63;10567024;28;20047;-54
2022/09/12 02:31:57;;;;;;;1.60;1.50;;;;;;;19.69;67.45;96947.81;10540019;28;20124;-52
2022/09/12 02:37:55;;;;;;;1.52;1.42;;;;;;;19.67;67.36;96945.41;10554457;28;20066;-54
2022/09/12 02:43:14;;;;;;;1.65;1.50;;;;;;;19.67;67.43;96950.03;10458724;28;20064;-53
2022/09/12 02:48:37;;;;;;;1.60;1.50;;;;;;;19.67;67.38;96939.22;10462039;28;20055;-55
2022/09/12 02:53:56;;;;;;;1.58;1.48;;;;;;;19.67;67.58;96947.34;10451592;28;20041;-53
2022/09/12 02:59:18;;;;;;;1.60;1.50;;;;;;;19.67;67.41;96933.81;10490002;28;20041;-51
2022/09/12 03:05:07;;;;;;;1.40;1.30;;;;;;;19.66;67.41;96945.72;10471396;28;20056;-52
2022/09/12 03:10:40;;;;;;;1.23;1.13;;;;;;;19.68;67.40;96946.22;10471005;28;20466;-53
2022/09/12 03:16:24;;;;;;;1.52;1.40;;;;;;;19.66;67.39;96948.44;10469775;28;20057;-53
2022/09/12 03:22:06;;;;;;;1.60;1.30;;;;;;;19.66;67.40;96937.63;10458309;28;20049;-54
2022/09/12 03:27:29;;;;;;;1.67;1.30;;;;;;;19.65;67.42;96947.66;10474517;28;20059;-53
2022/09/12 03:32:51;;;;;;;1.58;1.48;;;;;;;19.66;67.36;96948.44;10468131;28;20080;-52
2022/09/12 03:38:11;;;;;;;1.60;1.50;;;;;;;19.65;67.31;96938.75;10481624;28;20535;-53
2022/09/12 03:43:31;;;;;;;2.10;1.30;;;;;;;19.65;67.33;96936.06;10550846;28;20040;-54
2022/09/12 03:48:50;;;;;;;1.48;1.38;;;;;;;19.65;67.23;96941.47;10537684;28;20059;-53
2022/09/12 03:54:10;;;;;;;1.35;1.27;;;;;;;19.65;67.34;96946.88;10542706;28;20403;-53
2022/09/12 03:59:30;;;;;;;1.58;1.48;;;;;;;19.65;67.29;96942.25;10545865;28;20067;-53
2022/09/12 04:04:50;;;;;;;1.60;1.30;;;;;;;19.63;67.31;96947.19;10544521;28;20052;-53
2022/09/12 04:10:09;;;;;;;1.60;1.30;;;;;;;19.64;67.32;96931.75;10545219;28;20469;-53
2022/09/12 04:15:28;;;;;;;1.67;1.55;;;;;;;19.64;67.24;96939.84;10545549;28;20123;-53
2022/09/12 04:20:48;;;;;;;2.00;1.77;;;;;;;19.64;67.25;96950.66;10542131;28;20060;-54
2022/09/12 04:26:08;;;;;;;1.48;1.38;;;;;;;19.64;67.33;96945.25;10545012;28;20067;-55
2022/09/12 04:31:28;;;;;;;1.70;1.60;;;;;;;19.63;67.58;96944.47;10538477;28;20059;-53
2022/09/12 04:36:47;;;;;;;2.38;1.40;;;;;;;19.64;67.49;96950.66;10533080;28;20048;-54
2022/09/12 04:42:06;;;;;;;1.85;1.73;;;;;;;19.63;67.37;96949.09;10564146;28;20060;-54
2022/09/12 04:47:26;;;;;;;4.07;1.77;;;;;;;19.62;66.97;96947.50;10544402;28;20052;-54
2022/09/12 04:52:52;;;;;;;1.88;1.75;;;;;;;19.59;66.08;96934.63;10559062;28;20046;-55
2022/09/12 04:58:12;;;;;;;2.60;1.90;;;;;;;19.59;66.32;96948.16;10560323;28;20054;-55
2022/09/12 05:03:31;;;;;;;3.50;1.77;;;;;;;19.61;66.37;96954.03;10582332;28;20043;-54
2022/09/12 05:08:53;;;;;;;2.08;1.85;;;;;;;19.61;66.40;96945.91;10577224;28;20100;-54
2022/09/12 05:14:12;;;;;;;2.83;2.08;;;;;;;19.61;66.31;96949.41;10539871;28;20044;-54
2022/09/12 05:19:32;;;;;;;2.25;2.05;;;;;;;19.61;66.08;96954.03;10559971;28;20055;-54
2022/09/12 05:24:51;;;;;;;2.78;1.60;;;;;;;19.59;65.28;96958.97;10589238;28;20044;-54
2022/09/12 05:30:11;;;;;;;3.45;2.13;;;;;;;19.59;65.75;96967.84;10564378;28;20056;-54
2022/09/12 05:35:31;;;;;;;5.80;2.42;;;;;;;19.59;65.92;96969.78;10580279;28;20052;-53
2022/09/12 05:40:51;;;;;;;6.25;3.00;;;;;;;19.59;66.04;96983.28;10542996;28;20086;-54
2022/09/12 05:46:15;;;;;;;6.55;3.00;;;;;;;19.60;66.13;96982.16;10541448;28;20086;-54
2022/09/12 05:51:37;;;;;;;10.10;3.63;;;;;;;19.58;66.23;96976.28;10530957;28;20059;-54
2022/09/12 05:56:56;;;;;;;8.93;3.63;;;;;;;19.59;66.27;96977.88;10540610;28;20073;-53
2022/09/12 06:02:16;;;;;;;8.85;3.72;;;;;;;19.59;66.26;96985.97;10538429;28;20392;-53
2022/09/12 06:07:35;;;;;;;8.48;3.90;;;;;;;19.59;66.34;96977.88;10527995;28;20384;-54
2022/09/12 06:12:55;;;;;;;9.38;3.85;;;;;;;19.59;66.29;96980.59;10533136;28;20052;-52
2022/09/12 06:18:14;;;;;;;8.35;3.92;;;;;;;19.59;66.34;96980.59;10539493;28;20052;-54
2022/09/12 06:23:34;;;;;;;8.32;4.10;;;;;;;19.59;66.29;96977.88;10529760;28;20524;-56
2022/09/12 06:28:55;;;;;;;6.82;3.55;;;;;;;19.58;66.38;96990.56;10547951;28;20062;-54
2022/09/12 06:34:15;;;;;;;9.55;4.43;;;;;;;19.59;66.34;96985.97;10551571;28;20040;-51
2022/09/12 06:39:36;;;;;;;6.85;3.63;;;;;;;19.60;66.34;96992.97;10535538;28;20062;-54
2022/09/12 06:44:56;;;;;;;6.82;3.70;;;;;;;19.59;66.41;96994.09;10538648;28;20403;-54
2022/09/12 06:50:15;;;;;;;6.75;4.00;;;;;;;19.59;66.38;96983.28;10538561;28;20418;-54
2022/09/12 06:55:35;;;;;;;8.50;3.90;;;;;;;19.58;66.32;96990.56;10538541;28;20054;-53
2022/09/12 07:01:15;;;;;;;11.52;3.97;;;;;;;19.59;66.47;96988.69;10549893;28;20063;-54
2022/09/12 07:06:40;;;;;;;7.18;4.05;;;;;;;19.58;66.46;96982.47;10538353;28;20391;-55
2022/09/12 07:12:03;;;;;;;10.80;3.72;;;;;;;19.58;66.47;96985.16;10563361;28;20442;-54
2022/09/12 07:17:22;;;;;;;7.88;4.05;;;;;;;19.59;66.43;96991.38;10533455;28;20093;-54
2022/09/12 07:22:42;;;;;;;6.72;3.80;;;;;;;19.60;66.41;97003.78;10538332;28;20052;-52
2022/09/12 07:28:02;;;;;;;8.75;3.50;;;;;;;19.60;66.46;97003.78;10537003;28;20051;-54
2022/09/12 07:33:28;;;;;;;9.18;3.60;;;;;;;19.59;66.41;97000.28;10537912;28;20052;-54
2022/09/12 07:38:53;;;;;;;8.90;3.80;;;;;;;19.60;66.43;97003.78;10542680;28;20048;-53
2022/09/12 07:44:12;;;;;;;8.00;3.72;;;;;;;19.60;66.46;97010.00;10553548;28;20510;-53
2022/09/12 07:49:31;;;;;;;7.95;3.53;;;;;;;19.59;66.41;97013.00;10559515;28;20056;-54
2022/09/12 07:54:51;;;;;;;6.07;3.40;;;;;;;19.60;66.51;97014.59;10564719;28;20426;-54
2022/09/12 08:00:11;;;;;;;7.53;4.00;;;;;;;19.60;66.15;97025.38;10583013;28;20390;-52
2022/09/12 08:05:34;;;;;;;7.20;3.72;;;;;;;19.58;65.89;97023.00;10563812;28;20541;-54
2022/09/12 08:11:00;;;;;;;8.13;3.97;;;;;;;19.57;65.82;97026.84;10553806;28;20460;-55
2022/09/12 08:16:21;;;;;;;7.10;3.83;;;;;;;19.56;65.73;97030.63;10576284;28;20063;-55
2022/09/12 08:21:40;;;;;;;5.35;3.60;;;;;;;19.56;65.58;97025.22;10578558;28;20056;-55
2022/09/12 08:26:59;;;;;;;5.60;3.70;;;;;;;19.55;65.40;97035.25;10546948;28;20075;-55
2022/09/12 08:32:18;;;;;;;6.95;4.30;;;;;;;19.54;65.09;97028.28;10572673;28;20130;-55
2022/09/12 08:37:38;;;;;;;4.72;4.05;;;;;;;19.53;64.94;97032.06;10575721;28;20056;-55
2022/09/12 08:43:05;;;;;;;7.22;4.32;;;;;;;19.53;64.87;97032.06;10581296;28;20418;-55
2022/09/12 08:48:24;;;;;;;5.40;4.20;;;;;;;19.53;64.66;97032.06;10574962;28;20051;-55
2022/09/12 08:53:46;;;;;;;6.13;4.18;;;;;;;19.52;64.57;97030.50;10584003;28;20043;-55
2022/09/12 08:59:07;;;;;;;4.90;3.90;;;;;;;19.52;64.48;97035.09;10534486;28;20055;-55
2022/09/12 09:05:10;;;;;;;5.82;4.30;;;;;;;19.52;64.08;97029.69;10574238;28;20048;-56
2022/09/12 09:10:37;;;;;;;5.53;4.28;;;;;;;19.51;64.11;97018.09;10547983;28;20063;-55
2022/09/12 09:16:14;;;;;;;3.90;3.38;;;;;;;19.52;64.12;97018.88;10536609;28;20051;-55
2022/09/12 09:21:43;;;;;;;5.33;4.03;;;;;;;19.52;64.44;97003.47;10549128;28;20052;-55
2022/09/12 09:27:11;;;;;;;3.80;3.35;;;;;;;19.51;64.39;97004.56;10560053;28;20051;-55
2022/09/12 09:32:34;;;;;;;4.33;3.87;;;;;;;19.52;64.27;97005.38;10566719;28;20052;-55
2022/09/12 09:38:07;;;;;;;4.07;3.65;;;;;;;19.52;64.19;96998.06;10564023;28;20056;-55
2022/09/12 09:43:27;;;;;;;4.20;3.70;;;;;;;19.52;64.10;97002.66;10555167;28;20123;-54
2022/09/12 09:48:48;;;;;;;3.88;3.47;;;;;;;19.52;64.24;96998.06;10527896;28;20086;-54
2022/09/12 09:54:20;;;;;;;4.05;3.65;;;;;;;19.51;64.14;97007.28;10544460;28;20470;-52
2022/09/12 09:59:39;;;;;;;3.63;3.28;;;;;;;19.52;64.24;96994.56;10544524;28;20048;-53
2022/09/12 10:04:59;;;;;;;4.97;3.28;;;;;;;19.52;64.32;96987.25;10536961;28;20483;-53
2022/09/12 10:10:21;;;;;;;4.88;3.35;;;;;;;19.51;64.42;96988.38;10539169;28;20062;-54
2022/09/12 10:15:56;;;;;;;3.30;2.97;;;;;;;19.53;64.50;96993.47;10564445;28;20040;-53
2022/09/12 10:21:28;;;;;;;4.43;3.22;;;;;;;19.53;63.94;96988.84;10540489;28;20052;-54
2022/09/12 10:26:56;;;;;;;3.60;3.25;;;;;;;19.51;63.12;96991.06;10524679;28;20052;-55
2022/09/12 10:32:37;;;;;;;4.83;3.10;;;;;;;19.50;62.19;96994.91;10534402;28;20056;-55
2022/09/12 10:38:04;;;;;;;6.43;3.63;;;;;;;19.49;61.76;96987.09;10532689;28;20305;-55
2022/09/12 10:43:28;;;;;;;6.50;3.72;;;;;;;19.46;61.32;96985.81;10538948;28;20499;-55
2022/09/12 10:48:49;;;;;;;4.53;3.75;;;;;;;19.46;61.05;96985.81;10525892;28;20056;-55
2022/09/12 10:54:10;;;;;;;3.88;3.47;;;;;;;19.46;60.44;96988.50;10539443;28;20056;-54
2022/09/12 10:59:55;;;;;;;3.67;3.33;;;;;;;19.45;60.39;96978.03;10538053;28;20052;-54
2022/09/12 11:05:30;;;;;;;3.60;3.30;;;;;;;19.45;60.25;96970.72;10538036;28;20059;-55
2022/09/12 11:11:04;;;;;;;3.55;3.10;;;;;;;19.44;59.78;96971.81;10549662;28;20063;-55
2022/09/12 11:16:39;;;;;;;3.60;2.85;;;;;;;19.45;60.15;96970.72;10529137;28;20051;-55
2022/09/12 11:22:16;;;;;;;3.20;2.75;;;;;;;19.46;60.51;96969.59;10552164;28;20068;-54
2022/09/12 11:27:39;;;;;;;3.05;2.60;;;;;;;19.47;60.85;96962.31;10531756;28;20059;-55
2022/09/12 11:33:18;;;;;;;2.83;2.40;;;;;;;19.46;60.63;96969.59;10538408;28;20056;-55
2022/09/12 11:38:40;;;;;;;2.60;2.40;;;;;;;19.47;60.78;96965.00;10529323;28;20461;-54
2022/09/12 11:44:29;;;;;;;2.97;2.50;;;;;;;19.45;60.62;96965.31;10555587;28;20052;-54
2022/09/12 11:49:50;;;;;;;2.70;2.50;;;;;;;19.44;60.43;96963.72;10492347;28;20051;-55
2022/09/12 11:55:18;;;;;;;2.60;2.40;;;;;;;19.44;60.15;96963.72;10530001;28;20058;-55
2022/09/12 12:00:46;;;;;;;;;;;;;;;19.44;60.04;96966.44;10560963;28;20077;-55
2022/09/12 12:06:29;;;;;;;2.50;2.30;;;;;;;19.43;60.62;96964.84;10539787;28;19926;-54
2022/09/12 12:11:53;;;;;;;2.55;2.08;;;;;;;19.42;59.87;96962.47;10572044;28;20058;-54
2022/09/12 12:17:16;;;;;;;2.60;2.40;;;;;;;19.43;59.54;96951.34;10544716;28;20059;-55
2022/09/12 12:22:36;;;;;;;2.45;2.25;;;;;;;19.42;59.68;96948.97;10570069;28;20154;-55
2022/09/12 12:28:00;;;;;;;3.22;2.63;;;;;;;19.41;59.65;96942.75;10558071;28;20483;-54
2022/09/12 12:33:20;;;;;;;2.75;2.50;;;;;;;19.41;59.70;96945.47;10538820;28;20051;-53
2022/09/12 12:38:40;;;;;;;3.05;2.55;;;;;;;19.42;59.83;96944.34;10555397;28;20068;-55
2022/09/12 12:44:38;;;;;;;2.60;2.40;;;;;;;19.40;59.71;96938.47;10544320;28;20093;-55
2022/09/12 12:50:04;;;;;;;3.07;2.77;;;;;;;19.40;59.96;96941.16;10557731;28;20043;-55
2022/09/12 12:55:27;;;;;;;3.10;2.80;;;;;;;19.41;59.90;96937.34;10542440;28;20411;-55
2022/09/12 13:01:08;;;;;;;2.92;2.38;;;;;;;19.42;59.70;96940.84;10557627;28;20051;-55
2022/09/12 13:06:28;;;;;;;2.83;2.60;;;;;;;19.40;59.62;96924.94;10533737;28;20487;-55
2022/09/12 13:12:07;;;;;;;3.20;2.65;;;;;;;19.42;59.56;96936.22;10545361;28;20048;-54
2022/09/12 13:17:29;;;;;;;3.10;2.80;;;;;;;19.41;59.63;96931.97;10538852;28;20126;-54
2022/09/12 13:22:50;;;;;;;3.35;2.72;;;;;;;19.42;59.42;96932.75;10561332;28;20408;-54
2022/09/12 13:28:10;;;;;;;3.08;2.50;;;;;;;19.41;59.50;96926.56;10557234;28;20048;-55
2022/09/12 13:34:02;;;;;;;5.25;3.13;;;;;;;19.41;59.31;96910.34;10542510;28;20102;-55
2022/09/12 13:39:28;;;;;;;5.93;3.13;;;;;;;19.40;59.13;96905.25;10550983;28;20056;-55
2022/09/12 13:44:55;;;;;;;5.22;3.28;;;;;;;19.41;59.00;96910.34;10522128;28;20119;-55
2022/09/12 13:50:24;;;;;;;8.73;3.38;;;;;;;19.41;58.95;96909.56;10541125;28;20075;-54
2022/09/12 13:55:50;;;;;;;8.60;3.63;;;;;;;19.41;58.95;96893.34;10539255;28;20506;-55
2022/09/12 14:01:14;;;;;;;7.72;3.47;;;;;;;19.40;58.95;96892.53;10540472;28;20055;-55
2022/09/12 14:06:47;;;;;;;7.57;3.60;;;;;;;19.41;58.63;96894.13;10549489;28;20054;-55
2022/09/12 14:12:39;;;;;;;7.78;3.88;;;;;;;19.41;58.67;96882.53;10534011;28;20052;-55
2022/09/12 14:18:00;;;;;;;7.35;3.83;;;;;;;19.41;58.83;96883.31;10526797;28;20100;-55
2022/09/12 14:23:26;;;;;;;8.40;3.30;;;;;;;19.42;58.59;96881.41;10554397;28;20044;-54
2022/09/12 14:28:46;;;;;;;5.88;3.20;;;;;;;19.42;58.42;96881.41;10538606;28;20055;-54
2022/09/12 14:34:13;;;;;;;4.88;3.22;;;;;;;19.41;57.90;96871.75;10542252;28;20123;-55
2022/09/12 14:39:38;;;;;;;3.72;3.20;;;;;;;19.41;57.47;96867.13;10557437;28;20055;-54
2022/09/12 14:45:01;;;;;;;4.05;2.95;;;;;;;19.40;57.44;96865.53;10541907;28;20054;-47
2022/09/12 14:50:25;;;;;;;4.45;3.03;;;;;;;19.41;56.66;96861.72;10546592;28;20052;-47
2022/09/12 14:56:05;;;;;;;6.85;3.10;;;;;;;19.41;56.47;96866.34;10535738;28;20048;-51
2022/09/12 15:01:25;;;;;;;2.92;2.70;;;;;;;19.40;56.23;96860.13;10539137;28;20048;-48
2022/09/12 15:06:44;;;;;;;3.72;2.80;;;;;;;19.42;55.78;96859.81;10534872;28;20044;-47
2022/09/12 15:12:04;;;;;;;2.63;2.42;;;;;;;19.40;55.42;96857.41;10537908;28;20055;-52
2022/09/12 15:17:24;;;;;;;2.90;2.70;;;;;;;19.41;55.70;96847.41;10539976;28;20059;-49
2022/09/12 15:22:43;;;;;;;2.75;2.55;;;;;;;19.41;55.73;96855.53;10545446;28;20040;-54
2022/09/12 15:28:08;;;;;;;3.67;2.55;;;;;;;19.40;56.14;96849.31;10529646;28;20047;-54
2022/09/12 15:33:29;;;;;;;2.83;2.30;;;;;;;19.40;56.66;96849.31;10553969;28;20036;-54
2022/09/12 15:38:50;;;;;;;3.15;2.75;;;;;;;19.42;57.24;96847.06;10532141;28;20066;-54
2022/09/12 15:44:14;;;;;;;3.20;2.60;;;;;;;19.43;57.64;96845.19;10545993;28;20048;-54
2022/09/12 15:49:33;;;;;;;3.08;2.78;;;;;;;19.43;58.06;96843.28;10537829;28;20127;-54
2022/09/12 15:54:53;;;;;;;3.20;2.80;;;;;;;19.42;58.29;96841.69;10549322;28;20048;-53
2022/09/12 16:00:14;;;;;;;2.90;2.70;;;;;;;19.43;58.62;96845.97;10551585;28;20055;-53
2022/09/12 16:05:34;;;;;;;3.00;2.75;;;;;;;19.43;58.92;96840.56;10554045;28;20377;-51
2022/09/12 16:11:14;;;;;;;2.90;2.70;;;;;;;19.43;59.18;96840.56;10544500;28;20499;-53
2022/09/12 16:16:34;;;;;;;6.60;3.20;;;;;;;19.44;59.31;96841.34;10535382;28;20055;-56
2022/09/12 16:21:54;;;;;;;4.10;2.72;;;;;;;19.45;59.60;96841.03;10568118;28;20410;-55
2022/09/12 16:27:13;;;;;;;2.38;2.05;;;;;;;19.51;59.74;96830.84;10563645;28;20402;-57
2022/09/12 16:32:32;;;;;;;2.67;2.47;;;;;;;19.53;59.91;96824.00;10547699;28;20052;-56
2022/09/12 16:37:52;;;;;;;2.42;2.22;;;;;;;19.53;60.17;96824.00;10545707;28;20388;-47
2022/09/12 16:43:13;;;;;;;2.35;2.05;;;;;;;19.52;60.36;96822.44;10569128;28;20051;-52
2022/09/12 16:48:33;;;;;;;2.60;2.33;;;;;;;19.54;60.56;96819.38;10583247;28;20096;-58
2022/09/12 16:53:53;;;;;;;2.47;2.28;;;;;;;19.53;60.89;96810.50;10585138;28;20421;-55
2022/09/12 16:59:15;;;;;;;2.65;2.45;;;;;;;19.54;60.90;96811.28;10596111;28;20036;-51
2022/09/12 17:04:35;;;;;;;2.45;2.25;;;;;;;19.54;60.97;96812.09;10551132;28;20048;-54
2022/09/12 17:09:54;;;;;;;2.22;2.03;;;;;;;19.53;61.22;96805.09;10540342;28;20064;-53
2022/09/12 17:15:15;;;;;;;2.13;1.92;;;;;;;19.55;61.33;96802.06;10545344;28;20048;-55
2022/09/12 17:20:35;;;;;;;2.42;2.20;;;;;;;19.54;61.56;96797.78;10538971;28;20056;-55
2022/09/12 17:25:54;;;;;;;2.40;2.20;;;;;;;19.55;61.64;96808.25;10566833;28;20056;-54
2022/09/12 17:31:14;;;;;;;4.93;2.35;;;;;;;19.55;61.92;96805.56;10545074;28;20082;-53
2022/09/12 17:36:34;;;;;;;2.53;2.30;;;;;;;19.59;62.12;96810.34;10568431;28;20047;-54
2022/09/12 17:41:56;;;;;;;2.40;2.20;;;;;;;19.58;62.19;96816.84;10567297;28;20094;-51
2022/09/12 17:47:15;;;;;;;2.88;2.28;;;;;;;19.56;62.35;96803.66;10555490;28;20054;-52
2022/09/12 17:52:34;;;;;;;2.70;2.50;;;;;;;19.56;62.41;96815.28;10572874;28;20047;-48
2022/09/12 17:57:54;;;;;;;2.58;2.30;;;;;;;19.56;62.47;96817.97;10564917;28;20048;-50
2022/09/12 18:03:14;;;;;;;2.67;2.38;;;;;;;19.56;62.65;96814.44;10560746;28;20487;-55
2022/09/12 18:08:34;;;;;;;3.53;2.70;;;;;;;19.56;62.71;96815.28;10567844;28;20047;-54
2022/09/12 18:13:53;;;;;;;4.80;2.58;;;;;;;19.55;62.80;96816.38;10579119;28;20051;-48
2022/09/12 18:19:13;;;;;;;3.55;2.60;;;;;;;19.56;63.02;96825.25;10548791;28;20052;-50
2022/09/12 18:24:33;;;;;;;3.15;2.30;;;;;;;19.55;63.04;96816.38;10561105;28;20047;-49
2022/09/12 18:29:53;;;;;;;3.03;2.22;;;;;;;19.58;63.07;96822.25;10529346;28;20079;-54
2022/09/12 18:35:12;;;;;;;4.60;2.50;;;;;;;19.58;63.28;96825.72;10564168;28;20046;-49
2022/09/12 18:40:32;;;;;;;3.08;2.70;;;;;;;19.58;63.41;96816.84;10567262;28;20533;-53
2022/09/12 18:45:51;;;;;;;3.20;2.47;;;;;;;19.58;63.40;96806.81;10546404;28;20047;-47
2022/09/12 18:51:19;;;;;;;4.40;2.53;;;;;;;19.59;63.59;96810.34;10558590;28;20058;-49
2022/09/12 18:56:42;;;;;;;6.43;2.40;;;;;;;19.59;63.49;96807.63;10539302;28;20044;-51
2022/09/12 19:02:01;;;;;;;6.43;2.35;;;;;;;19.60;63.64;96811.91;10550195;28;20043;-52
2022/09/12 19:07:23;;;;;;;6.25;2.40;;;;;;;19.60;63.75;96814.59;10533644;28;20561;-50
2022/09/12 19:12:46;;;;;;;3.75;2.38;;;;;;;19.60;63.79;96806.50;10552257;28;20044;-55
2022/09/12 19:18:05;;;;;;;4.35;2.00;;;;;;;19.61;63.94;96805.41;10554277;28;20410;-53
2022/09/12 19:23:25;;;;;;;3.17;2.25;;;;;;;19.60;64.04;96803.78;10527334;28;20058;-52
2022/09/12 19:28:45;;;;;;;2.67;2.40;;;;;;;19.59;63.95;96804.94;10547913;28;20445;-53
2022/09/12 19:34:06;;;;;;;2.75;2.40;;;;;;;19.59;63.96;96808.41;10522779;28;20115;-52
2022/09/12 19:39:25;;;;;;;3.88;2.60;;;;;;;19.60;64.01;96811.91;10540457;28;20060;-53
2022/09/12 19:44:45;;;;;;;3.00;2.30;;;;;;;19.59;64.01;96805.72;10526445;28;20055;-52
2022/09/12 19:50:07;;;;;;;2.90;2.10;;;;;;;19.60;64.01;96806.50;10517768;28;20384;-54
2022/09/12 19:55:27;;;;;;;3.10;2.38;;;;;;;19.59;64.05;96808.41;10533346;28;20048;-54
2022/09/12 20:00:46;;;;;;;4.25;2.45;;;;;;;19.60;64.14;96803.78;10537781;28;20055;-55
2022/09/12 20:06:09;;;;;;;3.38;2.30;;;;;;;19.59;64.11;96805.72;10550977;28;20048;-56
2022/09/12 20:11:28;;;;;;;4.25;2.30;;;;;;;19.61;64.23;96808.09;10536505;28;20058;-56
2022/09/12 20:16:48;;;;;;;2.85;2.20;;;;;;;19.60;64.29;96803.78;10537378;28;20052;-57
2022/09/12 20:22:08;;;;;;;3.20;2.13;;;;;;;19.60;64.39;96799.19;10530488;28;20059;-53
2022/09/12 20:27:28;;;;;;;5.00;2.40;;;;;;;19.59;64.52;96792.19;10525670;28;20059;-56
2022/09/12 20:32:49;;;;;;;4.07;2.00;;;;;;;19.60;64.57;96793.00;10536878;28;20062;-54
2022/09/12 20:38:08;;;;;;;3.55;2.47;;;;;;;19.61;64.51;96794.59;10540707;28;20062;-53
2022/09/12 20:43:28;;;;;;;5.00;2.40;;;;;;;19.61;64.57;96794.59;10544502;28;20048;-52
2022/09/12 20:48:48;;;;;;;2.78;2.35;;;;;;;19.60;64.55;96783.00;10544325;28;20044;-52
2022/09/12 20:54:08;;;;;;;4.57;2.28;;;;;;;19.60;64.61;96788.41;10537263;28;20524;-52
2022/09/12 20:59:28;;;;;;;5.47;2.47;;;;;;;19.60;64.43;96795.69;10557613;28;20485;-51
2022/09/12 21:04:47;;;;;;;2.50;2.30;;;;;;;19.61;64.54;96791.88;10532109;28;20504;-52
2022/09/12 21:10:07;;;;;;;2.60;2.35;;;;;;;19.59;64.43;96784.09;10557176;28;20047;-52
2022/09/12 21:15:27;;;;;;;4.85;2.65;;;;;;;19.59;64.43;96780.59;10552502;28;20047;-51
2022/09/12 21:20:53;;;;;;;3.38;2.22;;;;;;;19.60;64.49;96782.19;10542623;28;20052;-49
2022/09/12 21:26:12;;;;;;;2.63;2.10;;;;;;;19.59;64.41;96775.19;10550540;28;20139;-50
2022/09/12 21:31:32;;;;;;;3.85;2.38;;;;;;;19.59;64.44;96777.91;10542900;28;20048;-50
2022/09/12 21:36:51;;;;;;;3.08;2.30;;;;;;;19.59;64.46;96775.19;10541846;28;20479;-51
2022/09/12 21:42:10;;;;;;;4.35;2.17;;;;;;;19.59;64.50;96769.78;10534797;28;20067;-52
2022/09/12 21:47:30;;;;;;;4.47;2.25;;;;;;;19.59;64.40;96773.28;10541910;28;20395;-52
2022/09/12 21:52:49;;;;;;;3.42;2.40;;;;;;;19.59;64.46;96769.78;10546113;28;20043;-51
2022/09/12 21:58:09;;;;;;;2.40;2.20;;;;;;;19.57;64.36;96767.41;10541078;28;20065;-49
2022/09/12 22:03:29;;;;;;;2.13;1.92;;;;;;;19.59;64.30;96773.28;10540540;28;20052;-51
2022/09/12 22:08:48;;;;;;;3.53;2.33;;;;;;;19.59;64.46;96764.41;10540956;28;20118;-52
2022/09/12 22:14:07;;;;;;;2.25;2.03;;;;;;;19.57;64.48;96762.00;10528164;28;20047;-50
2022/09/12 22:19:27;;;;;;;3.45;2.22;;;;;;;19.56;64.47;96761.22;10527951;28;20564;-50
2022/09/12 22:24:46;;;;;;;2.50;2.03;;;;;;;19.57;64.40;96753.91;10533971;28;20048;-52
2022/09/12 22:30:06;;;;;;;3.90;2.17;;;;;;;19.58;64.44;96751.97;10540619;28;20048;-53
2022/09/12 22:35:26;;;;;;;2.13;1.90;;;;;;;19.56;64.45;96746.91;10540499;28;20545;-52
2022/09/12 22:40:45;;;;;;;2.60;2.28;;;;;;;19.56;64.43;96753.13;10538104;28;20052;-51
2022/09/12 22:46:06;;;;;;;2.85;2.00;;;;;;;19.56;64.47;96750.41;10540101;28;20097;-48
2022/09/12 22:51:26;;;;;;;2.45;2.25;;;;;;;19.56;64.47;96747.72;10539976;28;20101;-50
2022/09/12 22:56:47;;;;;;;2.42;2.10;;;;;;;19.56;64.45;96741.50;10537174;28;20587;-51
2022/09/12 23:02:07;;;;;;;2.80;2.10;;;;;;;19.56;64.49;96736.91;10532709;28;20070;-51
2022/09/12 23:07:27;;;;;;;2.40;2.20;;;;;;;19.56;64.42;96742.31;10539002;28;20063;-50
2022/09/12 23:12:46;;;;;;;2.25;2.05;;;;;;;19.55;64.47;96727.19;10537626;28;20419;-48
2022/09/12 23:18:06;;;;;;;3.45;2.28;;;;;;;19.55;64.41;96721.78;10561317;28;20517;-53
2022/09/12 23:23:27;;;;;;;2.20;2.00;;;;;;;19.55;64.48;96721.00;10538894;28;20059;-52
2022/09/12 23:28:51;;;;;;;2.17;1.98;;;;;;;19.55;64.37;96712.91;10531481;28;20052;-52
2022/09/12 23:34:11;;;;;;;2.40;2.20;;;;;;;19.55;64.48;96712.91;10538296;28;20052;-53
2022/09/12 23:39:30;;;;;;;2.00;1.88;;;;;;;19.54;64.36;96714.81;10537871;28;20063;-50
2022/09/12 23:44:49;;;;;;;2.97;2.00;;;;;;;19.55;64.33;96711.00;10536473;28;20441;-53
2022/09/12 23:50:09;;;;;;;2.20;2.00;;;;;;;19.54;64.37;96701.31;10548507;28;20483;-52
2022/09/12 23:55:28;;;;;;;1.92;1.70;;;;;;;19.53;64.30;96702.41;10548448;28;20495;-52
